Time;durP1;ratioP1;P1;durP2;ratioP2;P2;SDS_P1;SDS_P2;PMS_P1;PMS_P2;Temp;Humidity;BMP_temperature;BMP_pressure;BME280_temperature;BME280_humidity;BME280_pressure;Samples;Min_cycle;Max_cycle;Signal;HPM_P1;HPM_P2
2023/07/17 00:00:25;;;;;;;;;;;24.20;47.10;;;;;;5035074;28;19924;-57
2023/07/17 00:02:52;;;;;;;;;;;24.20;47.20;;;;;;5036953;28;19925;-57
2023/07/17 00:05:19;;;;;;;;;;;24.20;47.20;;;;;;5028763;28;19925;-58
2023/07/17 00:07:47;;;;;;;;;;;24.20;47.20;;;;;;5033247;28;19967;-57
2023/07/17 00:10:14;;;;;;;;;;;24.20;47.20;;;;;;5052202;28;19933;-58
2023/07/17 00:12:41;;;;;;;;;;;24.20;47.20;;;;;;5034588;28;19948;-58
2023/07/17 00:15:08;;;;;;;;;;;24.20;47.30;;;;;;5035017;28;19971;-58
2023/07/17 00:17:35;;;;;;;;;;;24.20;47.30;;;;;;5043253;28;19925;-58
2023/07/17 00:20:03;;;;;;;;;;;24.20;47.30;;;;;;5028238;28;19925;-58
2023/07/17 00:22:29;;;;;;;;;;;24.20;47.30;;;;;;5027346;28;19925;-58
2023/07/17 00:24:58;;;;;;;;;;;24.20;47.30;;;;;;5025244;28;19929;-58
2023/07/17 00:27:24;;;;;;;;;;;24.20;47.30;;;;;;5034318;28;19933;-58
2023/07/17 00:29:51;;;;;;;;;;;24.20;47.30;;;;;;5052184;28;19925;-58
2023/07/17 00:32:18;;;;;;;;;;;24.20;47.30;;;;;;5034583;28;19924;-58
2023/07/17 00:34:45;;;;;;;;;;;24.20;47.30;;;;;;5034784;28;19970;-58
2023/07/17 00:37:12;;;;;;;;;;;24.20;47.30;;;;;;5049475;28;19925;-58
2023/07/17 00:39:39;;;;;;;;;;;24.20;47.30;;;;;;5034162;28;19928;-58
2023/07/17 00:42:07;;;;;;;;;;;24.20;47.30;;;;;;5033863;28;19929;-58
2023/07/17 00:44:35;;;;;;;;;;;24.20;47.30;;;;;;5025698;28;19928;-58
2023/07/17 00:47:02;;;;;;;;;;;24.20;47.30;;;;;;5031360;28;19967;-58
2023/07/17 00:49:29;;;;;;;;;;;24.20;47.30;;;;;;5046067;28;19931;-58
2023/07/17 00:51:56;;;;;;;;;;;24.20;47.30;;;;;;5033972;28;19925;-58
2023/07/17 00:54:23;;;;;;;;;;;24.20;47.30;;;;;;5033366;28;19947;-60
2023/07/17 00:56:50;;;;;;;;;;;24.10;47.10;;;;;;5033758;28;19924;-58
2023/07/17 00:59:18;;;;;;;;;;;24.10;47.10;;;;;;5044578;28;19928;-58
2023/07/17 01:01:45;;;;;;;;;;;24.20;47.20;;;;;;5025960;28;19936;-59
2023/07/17 01:04:11;;;;;;;;;;;24.20;47.20;;;;;;5022741;28;19924;-59
2023/07/17 01:06:39;;;;;;;;;;;24.20;47.20;;;;;;5031544;28;19931;-58
2023/07/17 01:09:04;;;;;;;;;;;24.10;47.10;;;;;;5033923;28;19924;-58
2023/07/17 01:11:31;;;;;;;;;;;24.10;47.10;;;;;;5033569;28;19984;-59
2023/07/17 01:13:58;;;;;;;;;;;24.10;47.10;;;;;;5046682;28;19931;-56
2023/07/17 01:16:26;;;;;;;;;;;24.10;47.00;;;;;;5019742;28;19984;-58
2023/07/17 01:18:53;;;;;;;;;;;24.10;47.00;;;;;;5033862;28;19932;-59
2023/07/17 01:21:20;;;;;;;;;;;24.10;47.00;;;;;;5051149;28;19928;-58
2023/07/17 01:23:49;;;;;;;;;;;24.10;47.00;;;;;;5033484;28;19925;-59
2023/07/17 01:26:16;;;;;;;;;;;24.10;47.00;;;;;;5021979;28;19928;-59
2023/07/17 01:28:43;;;;;;;;;;;24.10;47.00;;;;;;5016976;28;19925;-56
2023/07/17 01:31:10;;;;;;;;;;;24.10;47.00;;;;;;5027573;28;20151;-57
2023/07/17 01:33:37;;;;;;;;;;;24.10;47.00;;;;;;5032956;28;19932;-57
2023/07/17 01:36:03;;;;;;;;;;;24.10;47.00;;;;;;5034990;28;19925;-58
2023/07/17 01:38:30;;;;;;;;;;;24.10;47.00;;;;;;5032898;28;19925;-58
2023/07/17 01:40:58;;;;;;;;;;;24.10;47.00;;;;;;5031565;28;19929;-58
2023/07/17 01:43:25;;;;;;;;;;;24.10;47.00;;;;;;5033176;28;19932;-57
2023/07/17 01:45:52;;;;;;;;;;;24.10;47.00;;;;;;5044553;28;19929;-57
2023/07/17 01:48:19;;;;;;;;;;;24.10;47.00;;;;;;5029063;28;19925;-57
2023/07/17 01:50:45;;;;;;;;;;;24.10;47.00;;;;;;5040017;28;19986;-59
2023/07/17 01:53:12;;;;;;;;;;;24.10;47.00;;;;;;5036296;28;19925;-57
2023/07/17 01:55:39;;;;;;;;;;;24.10;47.00;;;;;;5050102;28;19936;-57
2023/07/17 01:58:07;;;;;;;;;;;24.10;47.60;;;;;;5050398;28;19989;-57
2023/07/17 02:00:34;;;;;;;;;;;24.10;47.00;;;;;;5032074;28;19932;-57
2023/07/17 02:03:01;;;;;;;;;;;24.10;47.00;;;;;;5049626;28;19947;-57
2023/07/17 02:05:28;;;;;;;;;;;24.10;47.10;;;;;;5032066;28;19964;-58
2023/07/17 02:07:55;;;;;;;;;;;24.10;47.10;;;;;;5029436;28;19936;-58
2023/07/17 02:10:22;;;;;;;;;;;24.10;47.10;;;;;;5032106;28;19925;-58
2023/07/17 02:12:48;;;;;;;;;;;24.10;47.00;;;;;;5046787;28;19926;-58
2023/07/17 02:15:16;;;;;;;;;;;24.10;47.10;;;;;;5028178;28;19929;-58
2023/07/17 02:17:43;;;;;;;;;;;24.10;47.00;;;;;;5026999;28;20003;-58
2023/07/17 02:20:13;;;;;;;;;;;24.10;47.10;;;;;;5015530;28;20062;-58
2023/07/17 02:22:40;;;;;;;;;;;24.10;47.10;;;;;;5018660;28;19950;-59
2023/07/17 02:25:07;;;;;;;;;;;24.10;47.10;;;;;;5023850;28;19928;-59
2023/07/17 02:27:34;;;;;;;;;;;24.10;47.10;;;;;;5025513;28;19932;-58
2023/07/17 02:30:01;;;;;;;;;;;24.10;47.10;;;;;;5029509;28;19954;-58
2023/07/17 02:32:29;;;;;;;;;;;24.10;47.10;;;;;;5026770;28;19932;-59
2023/07/17 02:34:56;;;;;;;;;;;24.00;47.00;;;;;;5029806;28;19931;-58
2023/07/17 02:37:23;;;;;;;;;;;24.00;47.00;;;;;;5006036;28;19984;-58
2023/07/17 02:39:49;;;;;;;;;;;24.10;47.10;;;;;;5014977;28;19921;-59
2023/07/17 02:42:16;;;;;;;;;;;24.10;47.10;;;;;;5043432;28;19928;-59
2023/07/17 02:44:44;;;;;;;;;;;24.00;47.00;;;;;;5048977;28;19921;-59
2023/07/17 02:47:10;;;;;;;;;;;24.00;47.00;;;;;;5040237;28;19971;-59
2023/07/17 02:49:39;;;;;;;;;;;24.10;47.10;;;;;;5035378;28;19924;-59
2023/07/17 02:52:06;;;;;;;;;;;24.10;47.10;;;;;;5054218;28;19933;-58
2023/07/17 02:54:33;;;;;;;;;;;24.00;47.00;;;;;;5042698;28;19924;-58
2023/07/17 02:57:00;;;;;;;;;;;24.00;47.00;;;;;;5033653;28;19924;-58
2023/07/17 02:59:26;;;;;;;;;;;24.00;47.00;;;;;;5030241;28;19929;-59
2023/07/17 03:01:53;;;;;;;;;;;24.00;47.00;;;;;;5035715;28;19932;-59
2023/07/17 03:04:20;;;;;;;;;;;24.00;47.00;;;;;;5036677;28;19924;-58
2023/07/17 03:06:48;;;;;;;;;;;24.00;47.00;;;;;;5036180;28;19974;-58
2023/07/17 03:09:15;;;;;;;;;;;24.00;47.00;;;;;;5036436;28;19925;-59
2023/07/17 03:11:42;;;;;;;;;;;24.00;47.00;;;;;;5038355;28;19932;-58
2023/07/17 03:14:09;;;;;;;;;;;24.00;47.00;;;;;;5028059;28;20002;-58
2023/07/17 03:16:35;;;;;;;;;;;24.00;47.00;;;;;;5024094;28;19929;-58
2023/07/17 03:19:03;;;;;;;;;;;24.00;47.00;;;;;;5043170;28;19924;-58
2023/07/17 03:21:29;;;;;;;;;;;24.00;47.00;;;;;;5022733;28;20035;-58
2023/07/17 03:23:57;;;;;;;;;;;24.00;47.00;;;;;;5049795;28;19952;-58
2023/07/17 03:26:24;;;;;;;;;;;24.00;47.00;;;;;;5023875;28;19935;-58
2023/07/17 03:28:51;;;;;;;;;;;24.00;47.00;;;;;;5025488;28;19932;-58
2023/07/17 03:31:18;;;;;;;;;;;24.00;47.00;;;;;;5030009;28;19932;-59
2023/07/17 03:33:45;;;;;;;;;;;24.00;47.00;;;;;;5058455;28;19929;-58
2023/07/17 03:36:11;;;;;;;;;;;24.00;47.00;;;;;;5028479;28;19975;-58
2023/07/17 03:38:38;;;;;;;;;;;24.00;47.00;;;;;;5034538;28;19924;-58
2023/07/17 03:41:06;;;;;;;;;;;24.00;47.00;;;;;;5029197;28;19991;-58
2023/07/17 03:43:33;;;;;;;;;;;24.00;47.00;;;;;;5027607;28;19925;-58
2023/07/17 03:46:00;;;;;;;;;;;23.90;46.90;;;;;;5035981;28;19941;-58
2023/07/17 03:48:27;;;;;;;;;;;24.00;46.90;;;;;;5020246;28;19929;-61
2023/07/17 03:50:54;;;;;;;;;;;24.00;46.90;;;;;;5029253;28;19932;-59
2023/07/17 03:53:20;;;;;;;;;;;24.00;46.90;;;;;;5048700;28;19935;-58
2023/07/17 03:55:47;;;;;;;;;;;24.00;46.80;;;;;;5032398;28;19929;-58
2023/07/17 03:58:15;;;;;;;;;;;23.90;46.70;;;;;;5031183;28;19925;-58
2023/07/17 04:00:42;;;;;;;;;;;23.90;46.70;;;;;;5030580;28;19929;-58
2023/07/17 04:03:09;;;;;;;;;;;23.90;46.70;;;;;;5034177;28;19974;-57
2023/07/17 04:05:35;;;;;;;;;;;23.90;46.60;;;;;;5033165;28;19925;-57
2023/07/17 04:08:02;;;;;;;;;;;23.90;46.60;;;;;;5032544;28;19936;-58
2023/07/17 04:10:29;;;;;;;;;;;23.90;46.60;;;;;;5027822;28;19935;-58
2023/07/17 04:12:56;;;;;;;;;;;23.90;46.60;;;;;;5051692;28;19929;-57
2023/07/17 04:15:24;;;;;;;;;;;23.90;46.60;;;;;;5048071;28;19925;-58
2023/07/17 04:17:51;;;;;;;;;;;23.90;46.60;;;;;;5032939;28;19925;-57
2023/07/17 04:20:19;;;;;;;;;;;23.90;46.60;;;;;;5034146;28;19929;-58
2023/07/17 04:22:45;;;;;;;;;;;23.90;46.60;;;;;;5051370;28;20373;-57
2023/07/17 04:25:12;;;;;;;;;;;23.90;46.60;;;;;;5034138;28;19924;-57
2023/07/17 04:27:39;;;;;;;;;;;23.90;46.60;;;;;;5025046;28;19929;-57
2023/07/17 04:30:06;;;;;;;;;;;23.90;46.60;;;;;;5022930;28;19924;-58
2023/07/17 04:32:35;;;;;;;;;;;23.90;46.70;;;;;;5014573;28;19925;-58
2023/07/17 04:35:02;;;;;;;;;;;23.90;46.70;;;;;;5024636;28;19925;-57
2023/07/17 04:37:29;;;;;;;;;;;23.90;46.70;;;;;;5026664;28;19955;-57
2023/07/17 04:39:55;;;;;;;;;;;23.90;46.70;;;;;;5041464;28;19947;-57
2023/07/17 04:42:22;;;;;;;;;;;23.90;46.70;;;;;;5029073;28;19925;-57
2023/07/17 04:44:49;;;;;;;;;;;23.90;46.70;;;;;;5027561;28;19948;-56
2023/07/17 04:47:16;;;;;;;;;;;23.90;46.80;;;;;;5026960;28;19932;-57
2023/07/17 04:49:44;;;;;;;;;;;23.90;46.80;;;;;;5026655;28;19948;-57
2023/07/17 04:52:11;;;;;;;;;;;23.90;46.80;;;;;;5049179;28;19947;-58
2023/07/17 04:54:38;;;;;;;;;;;23.90;46.80;;;;;;5033070;28;19932;-58
2023/07/17 04:57:05;;;;;;;;;;;23.90;46.80;;;;;;5027008;28;19924;-57
2023/07/17 04:59:31;;;;;;;;;;;23.90;46.90;;;;;;5035508;28;19970;-58
2023/07/17 05:01:58;;;;;;;;;;;23.90;47.50;;;;;;5031257;28;19936;-58
2023/07/17 05:04:25;;;;;;;;;;;23.90;46.90;;;;;;5033172;28;19929;-58
2023/07/17 05:06:53;;;;;;;;;;;23.90;47.00;;;;;;5032883;28;19932;-57
2023/07/17 05:09:20;;;;;;;;;;;23.90;47.00;;;;;;5023550;28;20029;-57
2023/07/17 05:11:47;;;;;;;;;;;23.90;47.00;;;;;;5047719;28;19924;-58
2023/07/17 05:14:13;;;;;;;;;;;23.90;47.10;;;;;;5051244;28;19975;-58
2023/07/17 05:16:40;;;;;;;;;;;23.90;47.10;;;;;;5033234;28;19925;-58
2023/07/17 05:19:07;;;;;;;;;;;23.90;47.10;;;;;;5033833;28;19996;-58
2023/07/17 05:21:34;;;;;;;;;;;23.90;47.10;;;;;;5027199;28;19925;-58
2023/07/17 05:24:02;;;;;;;;;;;23.90;47.20;;;;;;5033440;28;19931;-58
2023/07/17 05:26:29;;;;;;;;;;;23.90;47.20;;;;;;5031328;28;19968;-58
2023/07/17 05:28:56;;;;;;;;;;;23.90;47.30;;;;;;5033441;28;19925;-58
2023/07/17 05:31:23;;;;;;;;;;;23.90;47.20;;;;;;5051059;28;19979;-58
2023/07/17 05:33:49;;;;;;;;;;;23.80;47.10;;;;;;5032408;28;19924;-58
2023/07/17 05:36:16;;;;;;;;;;;23.90;47.30;;;;;;5032746;28;19933;-58
2023/07/17 05:38:43;;;;;;;;;;;23.90;47.30;;;;;;5021976;28;19925;-58
2023/07/17 05:41:12;;;;;;;;;;;23.90;47.30;;;;;;5025340;28;19925;-58
2023/07/17 05:43:39;;;;;;;;;;;23.90;47.30;;;;;;5050756;28;19929;-58
2023/07/17 05:46:06;;;;;;;;;;;23.80;47.30;;;;;;5019323;28;19925;-58
2023/07/17 05:48:32;;;;;;;;;;;23.90;47.40;;;;;;5027619;28;19933;-59
2023/07/17 05:50:59;;;;;;;;;;;23.90;47.40;;;;;;5044753;28;19929;-58
2023/07/17 05:53:26;;;;;;;;;;;23.90;47.40;;;;;;5024316;28;19935;-58
2023/07/17 05:55:53;;;;;;;;;;;23.90;47.40;;;;;;5046724;28;19925;-58
2023/07/17 05:58:21;;;;;;;;;;;23.90;47.50;;;;;;5046269;28;19964;-58
2023/07/17 06:00:48;;;;;;;;;;;23.90;47.50;;;;;;5051364;28;19955;-58
2023/07/17 06:03:15;;;;;;;;;;;23.90;47.50;;;;;;5025311;28;19932;-58
2023/07/17 06:05:41;;;;;;;;;;;23.90;47.50;;;;;;5037097;28;19925;-58
2023/07/17 06:08:09;;;;;;;;;;;23.90;47.50;;;;;;5040120;28;20016;-58
2023/07/17 06:10:35;;;;;;;;;;;23.90;47.50;;;;;;5027752;28;19944;-58
2023/07/17 06:13:02;;;;;;;;;;;23.90;47.50;;;;;;5023005;28;19929;-58
2023/07/17 06:15:30;;;;;;;;;;;23.90;47.50;;;;;;5024288;28;19933;-59
2023/07/17 06:17:57;;;;;;;;;;;23.90;47.60;;;;;;5033073;28;19933;-57
2023/07/17 06:20:24;;;;;;;;;;;23.90;47.60;;;;;;5031125;28;19965;-58
2023/07/17 06:22:50;;;;;;;;;;;23.90;47.60;;;;;;5034752;28;19932;-59
2023/07/17 06:25:17;;;;;;;;;;;23.90;47.80;;;;;;5033679;28;19929;-58
2023/07/17 06:27:44;;;;;;;;;;;23.90;47.90;;;;;;5052610;28;19925;-58
2023/07/17 06:30:14;;;;;;;;;;;23.90;48.10;;;;;;5051320;28;19928;-58
2023/07/17 06:32:42;;;;;;;;;;;23.90;48.10;;;;;;5029632;28;19987;-58
2023/07/17 06:35:09;;;;;;;;;;;23.80;48.10;;;;;;5036246;28;19929;-58
2023/07/17 06:37:36;;;;;;;;;;;23.80;48.20;;;;;;5034907;28;19936;-58
2023/07/17 06:40:04;;;;;;;;;;;23.80;48.30;;;;;;5050061;28;19932;-59
2023/07/17 06:42:33;;;;;;;;;;;23.80;48.30;;;;;;5031140;28;19921;-58
2023/07/17 06:44:59;;;;;;;;;;;23.80;48.30;;;;;;5031565;28;19929;-58
2023/07/17 06:47:26;;;;;;;;;;;23.80;48.30;;;;;;5050362;28;19927;-59
2023/07/17 06:49:54;;;;;;;;;;;23.80;48.30;;;;;;5047374;28;19967;-58
2023/07/17 06:52:21;;;;;;;;;;;23.80;48.30;;;;;;5035196;28;19925;-58
2023/07/17 06:54:48;;;;;;;;;;;23.80;48.40;;;;;;5028808;28;19931;-57
2023/07/17 06:57:14;;;;;;;;;;;23.80;48.40;;;;;;5023999;28;19925;-58
2023/07/17 06:59:41;;;;;;;;;;;23.70;48.30;;;;;;5044337;28;20004;-59
2023/07/17 07:02:09;;;;;;;;;;;23.70;48.40;;;;;;5026838;28;19929;-58
2023/07/17 07:04:35;;;;;;;;;;;23.70;48.50;;;;;;5029073;28;19932;-57
2023/07/17 07:07:04;;;;;;;;;;;23.70;48.50;;;;;;5025722;28;19933;-58
2023/07/17 07:09:30;;;;;;;;;;;23.70;48.50;;;;;;5027922;28;19936;-58
2023/07/17 07:11:57;;;;;;;;;;;23.70;48.50;;;;;;5026131;28;19921;-58
2023/07/17 07:14:24;;;;;;;;;;;23.70;48.60;;;;;;5024246;28;19933;-58
2023/07/17 07:16:51;;;;;;;;;;;23.70;48.60;;;;;;5037533;28;19933;-58
2023/07/17 07:19:17;;;;;;;;;;;23.60;48.60;;;;;;5022988;28;19929;-59
2023/07/17 07:21:44;;;;;;;;;;;23.70;48.80;;;;;;5041474;28;19970;-57
2023/07/17 07:24:12;;;;;;;;;;;23.70;49.40;;;;;;5026523;28;19932;-59
2023/07/17 07:26:39;;;;;;;;;;;23.60;48.80;;;;;;5023477;28;19933;-59
2023/07/17 07:29:06;;;;;;;;;;;23.60;48.90;;;;;;5022813;28;19928;-57
2023/07/17 07:31:32;;;;;;;;;;;23.60;48.80;;;;;;5020622;28;19929;-58
2023/07/17 07:33:59;;;;;;;;;;;23.70;49.00;;;;;;5029003;28;19925;-58
2023/07/17 07:36:28;;;;;;;;;;;23.70;48.90;;;;;;5029203;28;19924;-59
2023/07/17 07:38:54;;;;;;;;;;;23.70;48.90;;;;;;5044895;28;19940;-58
2023/07/17 07:41:23;;;;;;;;;;;23.70;48.50;;;;;;5023822;28;19929;-60
2023/07/17 07:43:50;;;;;;;;;;;23.70;48.40;;;;;;5029349;28;19975;-58
2023/07/17 07:46:16;;;;;;;;;;;23.60;48.40;;;;;;5032924;28;19924;-59
2023/07/17 07:48:43;;;;;;;;;;;23.60;48.40;;;;;;5047638;28;19932;-58
2023/07/17 07:51:10;;;;;;;;;;;23.60;48.40;;;;;;5044368;28;19955;-58
2023/07/17 07:53:37;;;;;;;;;;;23.60;48.40;;;;;;5024718;28;19925;-57
2023/07/17 07:56:03;;;;;;;;;;;23.60;48.40;;;;;;5042956;28;19959;-58
2023/07/17 07:58:32;;;;;;;;;;;23.60;48.40;;;;;;5027036;28;19933;-59
2023/07/17 08:00:58;;;;;;;;;;;23.60;48.30;;;;;;5027012;28;20054;-58
2023/07/17 08:03:25;;;;;;;;;;;23.60;48.30;;;;;;5048898;28;19978;-59
2023/07/17 08:05:52;;;;;;;;;;;23.60;48.30;;;;;;5028179;28;19929;-59
2023/07/17 08:08:19;;;;;;;;;;;23.60;48.20;;;;;;5030729;28;19932;-57
2023/07/17 08:10:46;;;;;;;;;;;23.70;48.20;;;;;;5030082;28;19921;-58
2023/07/17 08:13:13;;;;;;;;;;;23.70;48.20;;;;;;5030623;28;19928;-59
2023/07/17 08:15:41;;;;;;;;;;;23.70;48.10;;;;;;5034031;28;19932;-58
2023/07/17 08:18:08;;;;;;;;;;;23.70;48.10;;;;;;5046455;28;19929;-58
2023/07/17 08:20:35;;;;;;;;;;;23.70;48.10;;;;;;5023751;28;19925;-57
2023/07/17 08:23:01;;;;;;;;;;;23.70;48.10;;;;;;5033358;28;19983;-58
2023/07/17 08:25:28;;;;;;;;;;;23.70;48.10;;;;;;5039637;28;19939;-58
2023/07/17 08:27:55;;;;;;;;;;;23.70;48.10;;;;;;5022371;28;19935;-58
2023/07/17 08:30:22;;;;;;;;;;;23.70;48.00;;;;;;5043477;28;19928;-57
2023/07/17 08:32:50;;;;;;;;;;;23.70;47.80;;;;;;5028368;28;19951;-59
2023/07/17 08:35:17;;;;;;;;;;;23.70;47.70;;;;;;5029270;28;19925;-58
2023/07/17 08:37:43;;;;;;;;;;;23.70;47.50;;;;;;5027122;28;19936;-58
2023/07/17 08:40:11;;;;;;;;;;;23.70;47.30;;;;;;5017919;28;19929;-59
2023/07/17 08:42:38;;;;;;;;;;;23.70;47.20;;;;;;5029279;28;19933;-59
2023/07/17 08:45:05;;;;;;;;;;;23.70;47.20;;;;;;5025944;28;19933;-58
2023/07/17 08:47:32;;;;;;;;;;;23.60;47.00;;;;;;5044061;28;19928;-57
2023/07/17 08:50:01;;;;;;;;;;;23.70;47.00;;;;;;5047971;28;19925;-59
2023/07/17 08:52:27;;;;;;;;;;;23.70;46.80;;;;;;5044267;28;19925;-58
2023/07/17 08:54:54;;;;;;;;;;;23.70;46.70;;;;;;5049665;28;19933;-58
2023/07/17 08:57:21;;;;;;;;;;;23.70;46.60;;;;;;5044208;28;19936;-59
2023/07/17 08:59:48;;;;;;;;;;;23.70;46.40;;;;;;5024545;28;19960;-57
2023/07/17 09:02:15;;;;;;;;;;;23.70;46.10;;;;;;5028882;28;19925;-56
2023/07/17 09:04:41;;;;;;;;;;;23.60;46.00;;;;;;5026990;28;19933;-58
2023/07/17 09:07:10;;;;;;;;;;;23.70;46.00;;;;;;5028098;28;19936;-58
2023/07/17 09:09:36;;;;;;;;;;;23.70;46.00;;;;;;5023462;28;19925;-59
2023/07/17 09:12:07;;;;;;;;;;;23.60;45.90;;;;;;5031901;28;19924;-58
2023/07/17 09:14:34;;;;;;;;;;;23.70;45.90;;;;;;5024745;28;19925;-58
2023/07/17 09:17:01;;;;;;;;;;;23.70;45.90;;;;;;5012381;28;19932;-57
2023/07/17 09:19:29;;;;;;;;;;;23.70;45.90;;;;;;5026087;28;19974;-58
2023/07/17 09:21:58;;;;;;;;;;;23.70;45.80;;;;;;5025613;28;19936;-59
2023/07/17 09:24:26;;;;;;;;;;;23.70;45.60;;;;;;5025779;28;19979;-59
2023/07/17 09:26:55;;;;;;;;;;;23.70;45.50;;;;;;5023506;28;19970;-57
2023/07/17 09:29:22;;;;;;;;;;;23.70;45.40;;;;;;5046275;28;20003;-58
2023/07/17 09:31:49;;;;;;;;;;;23.70;45.40;;;;;;5028700;28;19960;-58
2023/07/17 09:34:16;;;;;;;;;;;23.70;45.30;;;;;;5027165;28;19936;-57
2023/07/17 09:36:42;;;;;;;;;;;23.70;45.10;;;;;;5042536;28;19925;-59
2023/07/17 09:39:10;;;;;;;;;;;23.70;45.00;;;;;;5028336;28;19928;-57
2023/07/17 09:41:38;;;;;;;;;;;23.70;44.90;;;;;;5028094;28;19972;-58
2023/07/17 09:44:05;;;;;;;;;;;23.70;44.80;;;;;;5045784;28;19925;-58
2023/07/17 09:46:32;;;;;;;;;;;23.70;44.60;;;;;;5043266;28;19929;-56
2023/07/17 09:48:59;;;;;;;;;;;23.70;44.40;;;;;;5020967;28;19983;-59
2023/07/17 09:51:26;;;;;;;;;;;23.70;44.30;;;;;;5044914;28;19936;-57
2023/07/17 09:53:52;;;;;;;;;;;23.70;44.30;;;;;;5025336;28;19924;-58
2023/07/17 09:56:20;;;;;;;;;;;23.70;44.40;;;;;;5024498;28;19925;-59
2023/07/17 09:58:48;;;;;;;;;;;23.70;44.30;;;;;;5040290;28;19994;-55
2023/07/17 10:01:16;;;;;;;;;;;23.70;44.30;;;;;;5026347;28;19986;-59
2023/07/17 10:03:43;;;;;;;;;;;23.70;44.50;;;;;;5028847;28;19929;-59
2023/07/17 10:06:10;;;;;;;;;;;23.70;44.30;;;;;;5028542;28;19929;-61
2023/07/17 10:08:37;;;;;;;;;;;23.70;44.30;;;;;;5027550;28;19944;-60
2023/07/17 10:11:03;;;;;;;;;;;23.70;44.00;;;;;;5046880;28;19928;-58
2023/07/17 10:13:30;;;;;;;;;;;23.70;43.20;;;;;;5019785;28;19974;-58
2023/07/17 10:15:58;;;;;;;;;;;23.70;43.00;;;;;;5026416;28;19982;-62
2023/07/17 10:18:25;;;;;;;;;;;23.70;43.00;;;;;;5027770;28;19925;-57
2023/07/17 10:20:52;;;;;;;;;;;23.60;42.60;;;;;;5034982;28;19936;-58
2023/07/17 10:23:23;;;;;;;;;;;23.60;42.80;;;;;;5026841;28;19929;-59
2023/07/17 10:25:50;;;;;;;;;;;23.50;42.90;;;;;;5030998;28;19940;-59
2023/07/17 10:28:21;;;;;;;;;;;23.40;42.70;;;;;;5028388;28;19928;-59
2023/07/17 10:30:49;;;;;;;;;;;23.40;42.50;;;;;;5041465;28;19932;-59
2023/07/17 10:33:19;;;;;;;;;;;23.40;42.70;;;;;;5054399;28;19929;-61
2023/07/17 10:35:46;;;;;;;;;;;23.30;42.10;;;;;;5032389;28;19932;-55
2023/07/17 10:38:13;;;;;;;;;;;23.30;42.00;;;;;;5030532;28;19925;-58
2023/07/17 10:40:40;;;;;;;;;;;23.20;41.90;;;;;;5025961;28;19955;-59
2023/07/17 10:43:10;;;;;;;;;;;23.20;42.00;;;;;;5030109;28;19956;-58
2023/07/17 10:45:37;;;;;;;;;;;23.10;41.70;;;;;;5043214;28;19925;-58
2023/07/17 10:48:05;;;;;;;;;;;23.10;41.70;;;;;;5037351;28;20019;-55
2023/07/17 10:50:33;;;;;;;;;;;23.10;42.00;;;;;;5028735;28;19928;-61
2023/07/17 10:53:02;;;;;;;;;;;23.10;42.20;;;;;;5050697;28;19932;-60
2023/07/17 10:55:29;;;;;;;;;;;23.10;42.60;;;;;;5026845;28;19925;-56
2023/07/17 10:57:56;;;;;;;;;;;23.10;42.90;;;;;;5024578;28;19929;-58
2023/07/17 11:00:23;;;;;;;;;;;23.10;43.20;;;;;;5024656;28;19933;-58
2023/07/17 11:02:49;;;;;;;;;;;23.10;43.50;;;;;;5020599;28;19925;-58
2023/07/17 11:05:16;;;;;;;;;;;23.20;43.70;;;;;;5021643;28;19933;-57
2023/07/17 11:07:44;;;;;;;;;;;23.20;43.70;;;;;;5030812;28;19957;-59
2023/07/17 11:10:12;;;;;;;;;;;23.30;43.80;;;;;;5031810;28;20004;-58
2023/07/17 11:12:39;;;;;;;;;;;23.30;43.90;;;;;;5035309;28;19968;-57
2023/07/17 11:15:12;;;;;;;;;;;23.30;43.90;;;;;;5029177;28;19925;-58
2023/07/17 11:17:39;;;;;;;;;;;23.30;44.00;;;;;;5020059;28;19932;-57
2023/07/17 11:20:07;;;;;;;;;;;23.40;44.10;;;;;;5034111;28;19925;-56
2023/07/17 11:22:34;;;;;;;;;;;23.40;44.10;;;;;;5027961;28;19925;-56
2023/07/17 11:25:02;;;;;;;;;;;23.50;44.10;;;;;;5030956;28;19929;-59
2023/07/17 11:27:29;;;;;;;;;;;23.50;44.10;;;;;;5046480;28;19925;-59
2023/07/17 11:29:55;;;;;;;;;;;23.50;44.10;;;;;;5044698;28;19924;-58
2023/07/17 11:32:22;;;;;;;;;;;23.50;44.10;;;;;;5040862;28;20036;-58
2023/07/17 11:34:52;;;;;;;;;;;23.60;44.10;;;;;;5026669;28;19987;-58
2023/07/17 11:37:32;;;;;;;;;;;23.60;44.20;;;;;;5028828;28;19928;-58
2023/07/17 11:39:58;;;;;;;;;;;23.60;44.20;;;;;;5025758;28;19925;-58
2023/07/17 11:42:26;;;;;;;;;;;23.60;44.10;;;;;;5029181;28;19925;-56
2023/07/17 11:44:57;;;;;;;;;;;23.60;44.20;;;;;;5031652;28;19979;-56
2023/07/17 11:47:25;;;;;;;;;;;23.60;44.20;;;;;;5023465;28;19979;-57
2023/07/17 11:49:53;;;;;;;;;;;23.60;44.20;;;;;;5031017;28;19929;-58
2023/07/17 11:52:20;;;;;;;;;;;23.60;44.20;;;;;;5033903;28;19974;-58
2023/07/17 11:54:47;;;;;;;;;;;23.60;44.10;;;;;;5026520;28;19924;-58
2023/07/17 11:57:13;;;;;;;;;;;23.60;44.10;;;;;;5024794;28;19988;-58
2023/07/17 11:59:44;;;;;;;;;;;23.70;44.30;;;;;;5028692;28;19925;-59
2023/07/17 12:02:11;;;;;;;;;;;23.70;44.30;;;;;;5028448;28;19929;-57
2023/07/17 12:04:40;;;;;;;;;;;23.70;44.40;;;;;;5027666;28;19933;-57
2023/07/17 12:07:07;;;;;;;;;;;23.70;44.30;;;;;;5028581;28;19978;-58
2023/07/17 12:09:34;;;;;;;;;;;23.70;44.90;;;;;;5025343;28;19940;-57
2023/07/17 12:12:00;;;;;;;;;;;23.70;44.40;;;;;;5055358;28;19925;-57
2023/07/17 12:14:27;;;;;;;;;;;23.70;44.20;;;;;;5049274;28;19932;-57
2023/07/17 12:16:55;;;;;;;;;;;23.70;44.20;;;;;;5030981;28;19925;-57
2023/07/17 12:19:22;;;;;;;;;;;23.70;44.50;;;;;;5024619;28;19925;-57
2023/07/17 12:21:49;;;;;;;;;;;23.70;44.80;;;;;;5028339;28;19970;-57
2023/07/17 12:24:16;;;;;;;;;;;23.70;45.10;;;;;;5031855;28;19925;-57
2023/07/17 12:26:42;;;;;;;;;;;23.70;45.30;;;;;;5029237;28;19929;-57
2023/07/17 12:29:09;;;;;;;;;;;23.70;45.20;;;;;;5047219;28;19936;-57
2023/07/17 12:31:36;;;;;;;;;;;23.60;44.60;;;;;;5026218;28;19932;-57
2023/07/17 12:34:04;;;;;;;;;;;23.60;44.40;;;;;;5050372;28;20383;-58
2023/07/17 12:36:31;;;;;;;;;;;23.60;44.40;;;;;;5025602;28;19928;-57
2023/07/17 12:39:11;;;;;;;;;;;23.60;44.60;;;;;;5012173;28;19960;-57
2023/07/17 12:41:37;;;;;;;;;;;23.50;44.70;;;;;;5044498;28;19928;-57
2023/07/17 12:44:04;;;;;;;;;;;23.40;44.90;;;;;;5032347;28;19940;-58
2023/07/17 12:46:31;;;;;;;;;;;23.40;45.10;;;;;;5039364;28;19925;-58
2023/07/17 12:48:58;;;;;;;;;;;23.40;45.30;;;;;;5026541;28;19929;-58
2023/07/17 12:51:26;;;;;;;;;;;23.40;45.50;;;;;;5025276;28;19956;-58
2023/07/17 12:53:53;;;;;;;;;;;23.40;45.70;;;;;;5048299;28;19929;-57
2023/07/17 12:56:21;;;;;;;;;;;23.40;45.70;;;;;;5024200;28;19936;-57
2023/07/17 12:58:48;;;;;;;;;;;23.40;45.60;;;;;;5028745;28;19931;-57
2023/07/17 13:01:14;;;;;;;;;;;23.30;45.50;;;;;;5045222;28;19932;-57
2023/07/17 13:03:41;;;;;;;;;;;23.30;45.60;;;;;;5039837;28;19936;-57
2023/07/17 13:06:08;;;;;;;;;;;23.30;45.70;;;;;;5028381;28;19995;-57
2023/07/17 13:08:37;;;;;;;;;;;23.30;45.80;;;;;;5027302;28;19925;-57
2023/07/17 13:11:04;;;;;;;;;;;23.30;45.90;;;;;;5027084;28;19929;-56
2023/07/17 13:13:30;;;;;;;;;;;23.30;46.00;;;;;;5036043;28;19936;-57
2023/07/17 13:15:57;;;;;;;;;;;23.30;46.40;;;;;;5022235;28;19951;-58
2023/07/17 13:18:24;;;;;;;;;;;23.30;47.40;;;;;;5028242;28;19932;-56
2023/07/17 13:20:51;;;;;;;;;;;23.30;47.90;;;;;;5031655;28;19925;-58
2023/07/17 13:23:17;;;;;;;;;;;23.30;48.20;;;;;;5042756;28;19935;-58
2023/07/17 13:25:46;;;;;;;;;;;23.30;48.60;;;;;;5051351;28;19933;-58
2023/07/17 13:28:12;;;;;;;;;;;23.40;49.10;;;;;;5041947;28;19998;-59
2023/07/17 13:30:39;;;;;;;;;;;23.30;49.30;;;;;;5028899;28;19932;-58
2023/07/17 13:33:06;;;;;;;;;;;23.40;49.60;;;;;;5028922;28;19928;-58
2023/07/17 13:35:33;;;;;;;;;;;23.40;49.70;;;;;;5032134;28;19979;-58
2023/07/17 13:38:00;;;;;;;;;;;23.40;49.90;;;;;;5028879;28;19925;-59
2023/07/17 13:40:27;;;;;;;;;;;23.30;49.90;;;;;;5027796;28;19956;-59
2023/07/17 13:42:55;;;;;;;;;;;23.30;50.20;;;;;;5043813;28;19966;-58
2023/07/17 13:45:22;;;;;;;;;;;23.30;50.10;;;;;;5026151;28;19929;-58
2023/07/17 13:47:49;;;;;;;;;;;23.30;49.90;;;;;;5028130;28;19951;-58
2023/07/17 13:50:15;;;;;;;;;;;23.30;49.90;;;;;;5019384;28;19925;-58
2023/07/17 13:52:42;;;;;;;;;;;23.30;50.20;;;;;;5030490;28;19926;-58
2023/07/17 13:55:09;;;;;;;;;;;23.30;50.20;;;;;;5041962;28;19924;-57
2023/07/17 13:57:36;;;;;;;;;;;23.20;50.10;;;;;;5030548;28;19931;-57
2023/07/17 14:00:05;;;;;;;;;;;23.20;49.80;;;;;;5027108;28;19925;-58
2023/07/17 14:02:31;;;;;;;;;;;23.20;49.90;;;;;;5024371;28;19928;-57
2023/07/17 14:04:58;;;;;;;;;;;23.10;49.80;;;;;;5028511;28;19932;-57
2023/07/17 14:07:25;;;;;;;;;;;23.10;49.90;;;;;;5027699;28;19940;-56
2023/07/17 14:09:52;;;;;;;;;;;23.10;50.00;;;;;;5030351;28;19925;-58
2023/07/17 14:12:18;;;;;;;;;;;23.10;50.10;;;;;;5032460;28;19931;-57
2023/07/17 14:14:45;;;;;;;;;;;23.10;50.10;;;;;;5027616;28;19925;-56